Latest Weather Observations for Warracknabeal Airport

IDV60801

Issued at 5:22 am EDT Tuesday 19 January 2021 (issued every 10 minutes, with the page automatically refreshed every 10 minutes)

About weather observations | Map of weather stations | Latest weather observations for VIC | Other Formats
Station Details ID: 078018 Name: WARRACKNABEAL AIRPORT Lat: -36.32 Lon: 142.42 Height: 118.3 m
Data from the previous 72 hours. | See also: Recent months at Warracknabeal Airport
Date/Time
EDT
Temp
°C
App
Temp
°C
Dew
Point
°C
Rel
Hum
%
Delta-T
°C
Wind Press
QNH
hPa
Press
MSL
hPa
Rain since
9am
mm
Dir  Spd
km/h
Gust
km/h
Spd
kts
Gust
kts
19/05:00am 14.2 10.6 9.8 75 2.3 S 19 24 10 13 1020.2 1019.8 0.0
19/04:30am 14.2 11.7 9.6 74 2.4 SSE 13 15 7 8 1020.1 1019.7 0.0
19/04:00am 14.3 12.6 9.7 74 2.4 SSE 9 11 5 6 1020.0 1019.6 0.0
19/03:30am 14.6 12.1 9.8 73 2.5 SSE 13 15 7 8 1019.9 1019.5 0.0
19/03:00am 14.8 11.8 9.4 70 2.8 SSE 15 20 8 11 1020.0 1019.6 0.0
19/02:30am 14.7 10.8 9.5 71 2.7 SSW 20 26 11 14 1020.0 1019.6 0.0
19/02:00am 14.4 10.4 9.2 71 2.7 S 20 26 11 14 1020.1 1019.7 0.0
19/01:30am 13.7 11.1 9.4 75 2.2 S 13 17 7 9 1020.0 1019.6 0.0
19/01:00am 14.1 11.0 8.9 71 2.6 S 15 19 8 10 1020.0 1019.6 0.0
19/12:30am 14.9 11.1 9.1 68 3.0 S 19 26 10 14 1019.9 1019.5 0.0
19/12:00am 15.5 10.0 9.2 66 3.2 SSW 28 33 15 18 1019.7 1019.3 0.0
 
Date/Time
EDT
Temp
°C
App
Temp
°C
Dew
Point
°C
Rel
Hum
%
Delta-T
°C
Wind Press
QNH
hPa
Press
MSL
hPa
Rain since
9am
mm
Dir  Spd
km/h
Gust
km/h
Spd
kts
Gust
kts
18/11:30pm 16.1 11.3 8.8 62 3.8 SSW 24 37 13 20 1019.6 1019.2 0.0
18/11:00pm 16.8 11.2 8.8 59 4.1 SSW 28 37 15 20 1019.2 1018.7 0.0
18/10:30pm 17.4 12.5 8.3 55 4.7 SSW 24 35 13 19 1019.1 1018.6 0.0
18/10:00pm 18.1 12.4 8.4 53 5.0 SSW 28 35 15 19 1018.7 1018.2 0.0
18/09:30pm 19.2 14.3 8.5 50 5.6 SW 24 33 13 18 1018.1 1017.6 0.0
18/09:00pm 20.5 14.9 8.8 47 6.2 SW 28 37 15 20 1017.5 1017.0 0.0
18/08:30pm 22.1 15.5 8.6 42 7.2 SW 33 44 18 24 1017.1 1016.6 0.0
18/08:00pm 23.7 16.9 7.8 36 8.4 SSW 33 44 18 24 1016.7 1016.3 0.0
18/07:30pm 25.1 18.2 6.3 30 9.8 SSW 32 46 17 25 1016.2 1015.8 0.0
18/07:00pm 26.1 18.3 6.7 29 10.2 SSW 37 48 20 26 1015.8 1015.4 0.0
18/06:30pm 26.7 18.7 5.6 26 10.9 SSW 37 48 20 26 1015.6 1015.2 0.0
18/06:00pm 27.9 20.8 5.5 24 11.7 SSW 32 44 17 24 1015.3 1014.9 0.0
18/05:38pm 28.2 21.8 6.9 26 11.4 SSW 30 50 16 27 1015.4 1015.0 0.0
18/05:30pm 28.1 21.7 6.8 26 11.4 SSW 30 43 16 23 1015.4 1015.0 0.0
18/05:17pm 27.7 20.8 6.5 26 11.2 SW 32 50 17 27 1015.4 1015.0 0.0
18/05:00pm 27.7 21.6 6.5 26 11.2 SW 28 43 15 23 1015.6 1015.2 0.0
18/04:30pm 27.5 20.8 7.4 28 10.8 SW 32 46 17 25 1015.9 1015.5 0.0
18/04:00pm 27.4 21.3 6.8 27 10.9 SW 28 39 15 21 1016.3 1015.9 0.0
18/03:30pm 27.8 20.9 7.1 27 11.1 SW 33 44 18 24 1016.6 1016.2 0.0
18/03:16pm 27.0 20.9 6.4 27 10.8 SW 28 46 15 25 1016.7 1016.3 0.0
18/03:00pm 26.1 19.6 6.7 29 10.2 SW 30 43 16 23 1016.8 1016.4 0.0
18/02:30pm 26.0 20.5 7.6 31 9.8 SW 26 37 14 20 1017.3 1016.8 0.0
18/02:00pm 25.0 20.1 8.5 35 8.9 SW 24 41 13 22 1017.6 1017.1 0.0
18/01:30pm 25.3 20.2 9.2 36 8.8 SW 26 37 14 20 1018.0 1017.5 0.0
18/01:00pm 23.0 17.4 8.7 40 7.6 SW 28 39 15 21 1018.7 1018.2 0.0
18/12:30pm 22.4 16.6 9.6 44 6.9 SW 30 43 16 23 1019.0 1018.5 0.0
18/12:00pm 21.6 16.2 9.5 46 6.5 SW 28 39 15 21 1019.2 1018.7 0.0
18/11:30am 21.0 16.5 10.2 50 5.9 SSW 24 35 13 19 1019.4 1018.9 0.0
18/11:00am 19.6 15.5 10.0 54 5.2 SW 22 35 12 19 1019.6 1019.2 0.0
18/10:30am 19.2 14.8 10.5 57 4.7 SW 24 32 13 17 1019.8 1019.4 0.0
18/10:00am 18.5 14.2 10.6 60 4.3 SW 24 35 13 19 1019.9 1019.5 0.0
18/09:30am 17.1 12.3 10.2 64 3.7 SSW 26 37 14 20 1020.0 1019.6 0.0
18/09:00am 15.8 11.0 10.3 70 2.9 SSW 26 35 14 19 1020.0 1019.6 0.0
18/08:30am 15.3 10.5 10.3 72 2.6 SSW 26 43 14 23 1019.8 1019.4 0.0
18/08:00am 13.8 9.3 10.0 78 2.0 SSW 24 37 13 20 1019.4 1018.9 0.0
18/07:30am 12.0 8.7 9.4 84 1.3 SSW 17 20 9 11 1019.1 1018.6 0.0
18/07:00am 10.7 6.2 8.6 87 1.0 SSW 22 28 12 15 1018.9 1018.4 0.0
18/06:30am 10.5 6.6 8.6 88 0.9 SSW 19 26 10 14 1018.3 1017.8 0.0
18/06:00am 10.1 5.8 7.9 86 1.1 SSW 20 28 11 15 1018.0 1017.5 0.0
18/05:30am 10.4 6.3 7.8 84 1.3 SSW 19 24 10 13 1017.9 1017.4 0.0
18/05:00am 10.7 6.6 7.8 82 1.4 SSW 19 24 10 13 1017.7 1017.2 0.0
18/04:30am 10.8 6.7 7.7 81 1.5 SSW 19 24 10 13 1017.6 1017.1 0.0
18/04:00am 11.0 6.6 7.5 79 1.7 SSW 20 24 11 13 1017.7 1017.2 0.0
18/03:30am 11.3 7.8 7.4 77 1.9 SSW 15 17 8 9 1017.9 1017.4 0.0
18/03:00am 12.0 8.2 7.5 74 2.2 SSW 17 20 9 11 1018.1 1017.6 0.0
18/02:30am 12.6 8.4 7.5 71 2.5 SSW 19 22 10 12 1018.5 1018.0 0.0
18/02:00am 13.1 9.3 7.5 69 2.7 SSW 17 20 9 11 1018.8 1018.3 0.0
18/01:30am 13.5 10.4 7.3 66 3.0 SSW 13 17 7 9 1018.9 1018.4 0.0
18/01:00am 14.8 10.4 7.4 61 3.7 SSW 20 24 11 13 1019.0 1018.5 0.0
18/12:30am 15.8 11.6 7.6 58 4.1 S 19 28 10 15 1019.0 1018.5 0.0
18/12:00am 16.6 12.1 7.0 53 4.8 S 20 28 11 15 1018.9 1018.4 0.0
 
Date/Time
EDT
Temp
°C
App
Temp
°C
Dew
Point
°C
Rel
Hum
%
Delta-T
°C
Wind Press
QNH
hPa
Press
MSL
hPa
Rain since
9am
mm
Dir  Spd
km/h
Gust
km/h
Spd
kts
Gust
kts
17/11:30pm 17.7 11.7 6.9 49 5.4 SSW 28 35 15 19 1018.6 1018.1 0.0
17/11:00pm 18.4 12.9 5.9 44 6.2 SSW 24 32 13 17 1018.5 1018.0 0.0
17/10:30pm 18.7 13.9 4.5 39 6.8 SSW 19 24 10 13 1018.4 1017.9 0.0
17/10:00pm 19.9 14.5 4.4 36 7.5 SSW 22 28 12 15 1018.1 1017.6 0.0
17/09:30pm 20.7 15.8 4.3 34 8.0 SSW 19 24 10 13 1017.7 1017.2 0.0
17/09:00pm 21.9 17.0 4.0 31 8.7 SSW 19 24 10 13 1017.3 1016.8 0.0
17/08:30pm 23.1 17.5 3.6 28 9.5 SSW 22 30 12 16 1016.9 1016.5 0.0
17/08:00pm 24.3 18.3 3.6 26 10.2 SSW 24 32 13 17 1016.4 1016.0 0.0
17/07:30pm 25.1 18.8 3.7 25 10.6 SW 26 39 14 21 1016.2 1015.8 0.0
17/07:00pm 25.5 19.9 3.5 24 10.9 SSW 22 28 12 15 1016.0 1015.6 0.0
17/06:30pm 25.9 19.9 3.2 23 11.2 SW 24 37 13 20 1016.0 1015.6 0.0
17/06:00pm 26.1 19.2 2.7 22 11.5 SSW 28 37 15 20 1016.1 1015.7 0.0
17/05:30pm 26.0 19.2 3.3 23 11.2 SSW 28 39 15 21 1016.3 1015.9 0.0
17/05:00pm 26.1 19.4 3.4 23 11.3 SSW 28 39 15 21 1016.6 1016.2 0.0
17/04:30pm 26.1 18.8 2.7 22 11.5 SW 30 43 16 23 1016.8 1016.4 0.0
17/04:00pm 26.4 20.3 3.0 22 11.5 SSW 24 37 13 20 1017.1 1016.6 0.0
17/03:30pm 25.8 19.9 1.8 21 11.5 SSW 22 39 12 21 1017.5 1017.0 0.0
17/03:00pm 25.6 19.4 2.3 22 11.3 SW 24 41 13 22 1017.8 1017.3 0.0
17/02:30pm 24.8 18.0 2.9 24 10.7 SW 28 39 15 21 1018.0 1017.5 0.0
17/02:00pm 23.8 17.4 3.2 26 10.0 SW 26 35 14 19 1018.5 1018.0 0.0
17/01:30pm 22.0 17.0 4.6 32 8.6 SSW 20 32 11 17 1019.2 1018.7 0.0
17/01:00pm 22.1 16.9 5.5 34 8.3 SSW 22 33 12 18 1019.5 1019.0 0.0
17/12:30pm 21.6 16.0 5.5 35 8.1 SSW 24 35 13 19 1019.8 1019.4 0.0
17/12:00pm 20.8 16.3 6.0 38 7.4 SSW 19 32 10 17 1020.0 1019.6 0.0
17/11:30am 19.1 15.0 6.2 43 6.4 SW 17 24 9 13 1020.4 1020.0 0.0
17/11:00am 18.9 14.9 6.7 45 6.1 SSW 17 30 9 16 1020.6 1020.2 0.0
17/10:30am 17.9 13.4 7.0 49 5.5 SSW 20 30 11 16 1020.5 1020.1 0.0
17/10:00am 16.8 12.2 6.6 51 5.0 SSW 20 28 11 15 1020.6 1020.2 0.0
17/09:30am 16.2 11.7 6.3 52 4.9 SSW 19 32 10 17 1020.6 1020.2 0.0
17/09:00am 15.1 10.7 7.6 61 3.7 SSW 20 26 11 14 1020.5 1020.1 0.0
17/08:30am 14.4 10.0 9.0 70 2.8 SSW 22 28 12 15 1020.1 1019.7 0.0
17/08:00am 13.1 9.5 9.7 80 1.7 SSW 19 24 10 13 1019.8 1019.4 0.0
17/07:30am 12.1 9.2 9.5 84 1.3 SSW 15 20 8 11 1019.4 1018.9 0.0
17/07:00am 11.1 8.4 9.0 87 1.0 SSW 13 17 7 9 1018.9 1018.4 0.0
17/06:30am 11.2 8.2 9.3 88 1.0 SSW 15 19 8 10 1018.5 1018.0 0.0
17/06:00am 11.9 8.9 9.3 84 1.3 SSW 15 20 8 11 1018.4 1017.9 0.0
17/05:30am 12.9 10.1 9.9 82 1.5 SSW 15 19 8 10 1018.1 1017.6 0.0
17/05:00am 13.7 10.5 10.1 79 1.9 SSW 17 22 9 12 1018.1 1017.6 0.0
17/04:30am 14.1 11.3 10.1 77 2.1 SSW 15 19 8 10 1018.0 1017.5 0.0
17/04:00am 14.1 10.9 10.1 77 2.1 SSW 17 24 9 13 1018.0 1017.5 0.0
17/03:30am 14.1 11.0 10.3 78 2.0 SSW 17 22 9 12 1018.1 1017.6 0.0
17/03:00am 14.0 10.7 11.0 82 1.6 SSW 19 22 10 12 1018.3 1017.8 0.0
17/02:30am 14.8 11.3 10.8 77 2.1 SSW 20 28 11 15 1018.4 1017.9 0.0
17/02:00am 15.0 11.5 10.8 76 2.2 SW 20 28 11 15 1018.3 1017.8 0.0
17/01:30am 15.0 11.7 10.8 76 2.2 SW 19 26 10 14 1018.3 1017.8 0.0
17/01:00am 15.1 10.5 10.9 76 2.2 SSW 26 37 14 20 1018.1 1017.6 0.0
17/12:30am 15.5 10.4 10.7 73 2.6 SSW 28 41 15 22 1018.1 1017.6 0.0
17/12:28am 15.6 10.6 10.8 73 2.6 SSW 28 41 15 22 1018.1 1017.6 0.0
17/12:00am 15.5 12.3 10.1 70 2.8 SSW 17 19 9 10 1017.9 1017.4 0.0
 
Date/Time
EDT
Temp
°C
App
Temp
°C
Dew
Point
°C
Rel
Hum
%
Delta-T
°C
Wind Press
QNH
hPa
Press
MSL
hPa
Rain since
9am
mm
Dir  Spd
km/h
Gust
km/h
Spd
kts
Gust
kts
16/11:30pm 16.1 13.0 10.2 68 3.1 SSW 17 22 9 12 1017.8 1017.3 0.0
16/11:00pm 15.8 12.3 10.3 70 2.9 SSW 19 22 10 12 1017.7 1017.2 0.0
16/10:30pm 16.5 12.9 10.6 68 3.2 SSW 20 28 11 15 1017.5 1017.0 0.0
16/10:00pm 17.6 13.0 9.8 60 4.1 SW 24 33 13 18 1017.3 1016.8 0.0
16/09:30pm 18.5 13.6 9.8 57 4.6 SW 26 35 14 19 1017.1 1016.6 0.0
16/09:00pm 18.9 13.9 9.4 54 5.0 SW 26 37 14 20 1016.8 1016.4 0.0
16/08:30pm 19.3 14.5 8.9 51 5.5 SW 24 32 13 17 1016.5 1016.1 0.0
16/08:00pm 20.0 14.0 8.7 48 5.9 SW 30 39 16 21 1016.2 1015.8 0.0
16/07:30pm 20.5 13.9 8.5 46 6.3 SW 33 41 18 22 1015.9 1015.5 0.0
16/07:00pm 21.0 13.9 8.0 43 6.8 SW 35 46 19 25 1015.7 1015.3 0.0
16/06:30pm 21.5 14.9 7.7 41 7.2 SW 32 54 17 29 1015.4 1015.0 0.0
16/06:00pm 21.6 14.7 7.4 40 7.4 SW 33 61 18 33 1015.5 1015.1 0.0
16/05:50pm 22.8 16.4 7.0 36 8.2 SW 30 54 16 29 1015.4 1015.0 0.0
16/05:30pm 24.0 17.4 7.6 35 8.7 SW 32 43 17 23 1015.5 1015.1 0.0
16/05:03pm 23.6 16.8 6.8 34 8.7 SW 32 50 17 27 1015.4 1015.0 0.0
16/05:00pm 23.6 16.6 6.8 34 8.7 SW 33 50 18 27 1015.4 1015.0 0.0
16/04:46pm 23.3 16.8 6.6 34 8.6 SW 30 63 16 34 1015.3 1014.9 0.0
16/04:30pm 22.7 17.0 6.5 35 8.3 SW 26 39 14 21 1015.5 1015.1 0.0
16/04:04pm 22.3 16.2 6.5 36 8.1 SW 28 46 15 25 1015.7 1015.3 0.0
16/04:00pm 22.4 15.4 6.2 35 8.3 SSW 32 41 17 22 1015.7 1015.3 0.0
16/03:30pm 22.9 16.5 7.1 36 8.2 SW 30 43 16 23 1015.9 1015.5 0.0
16/03:01pm 23.3 17.1 6.1 33 8.8 SW 28 46 15 25 1016.1 1015.7 0.0
16/03:00pm 23.1 16.9 6.0 33 8.7 SW 28 44 15 24 1016.0 1015.6 0.0
16/02:30pm 22.0 15.3 5.4 34 8.3 SW 30 52 16 28 1016.2 1015.8 0.0
16/02:04pm 21.3 14.9 5.2 35 8.0 SW 28 46 15 25 1016.6 1016.2 0.0
16/02:00pm 21.8 15.0 5.3 34 8.2 WSW 30 46 16 25 1016.6 1016.2 0.0
16/01:30pm 21.8 14.7 5.3 34 8.2 SW 32 46 17 25 1016.8 1016.4 0.0
16/01:00pm 21.6 14.7 4.7 33 8.3 SW 30 39 16 21 1017.1 1016.6 0.0
16/12:30pm 20.5 14.0 4.9 36 7.7 SW 28 39 15 21 1017.3 1016.8 0.0
16/12:00pm 19.7 12.6 5.4 39 7.0 SW 32 43 17 23 1017.4 1016.9 0.0
16/11:30am 19.0 11.9 5.5 41 6.6 SSW 32 50 17 27 1017.4 1016.9 0.0
16/11:22am 18.9 12.1 5.0 40 6.8 SW 30 50 16 27 1017.4 1016.9 0.0
16/11:00am 18.9 12.5 5.0 40 6.8 SW 28 41 15 22 1017.4 1016.9 0.0
16/10:30am 17.5 10.1 5.1 44 6.0 SSW 33 44 18 24 1017.8 1017.3 0.0
16/10:00am 16.5 9.3 4.9 46 5.5 SSW 32 43 17 23 1017.8 1017.3 0.0
16/09:30am 15.5 8.3 5.1 50 4.9 SSW 32 44 17 24 1017.8 1017.3 0.0
16/09:00am 15.2 9.0 7.7 61 3.7 SW 30 44 16 24 1017.7 1017.2 -
16/08:30am 13.8 7.8 8.8 72 2.5 SW 30 39 16 21 1017.5 1017.0 -
16/08:00am 13.2 8.4 8.9 75 2.2 SW 24 35 13 19 1016.9 1016.5 -
16/07:30am 11.3 7.4 8.5 83 1.4 WSW 19 24 10 13 1016.8 1016.4 -
16/07:00am 10.6 7.4 8.5 87 1.0 WSW 15 19 8 10 1016.5 1016.1 -
16/06:30am 10.6 7.4 8.5 87 1.0 WSW 15 20 8 11 1016.1 1015.7 -
16/06:00am 11.8 8.3 8.6 81 1.6 SW 17 24 9 13 1015.7 1015.3 -
16/05:30am 12.0 7.6 9.0 82 1.5 SW 22 32 12 17 1015.4 1015.0 -

Other formats

Comma delimited format used in spreadsheet applications
http://www.bom.gov.au/fwo/IDV60801/IDV60801.94920.axf

JavaScript Object Notation format (JSON) in row-major order
http://www.bom.gov.au/fwo/IDV60801/IDV60801.94920.json

Data quality

Most of these data are generated automatically and are frequently updated. Quality checks on data are not normally performed. It is possible for incorrect values to appear. Refer to information at About Latest Weather Observations and please check the disclaimer before using these data.